sensor_id;sensor_type;location;lat;lon;timestamp;P1;durP1;ratioP1;P2;durP2;ratioP2
77384;SDS011;66443;49.122;8.346;2023-06-10T00:02:23;6.30;;;5.90;;
77384;SDS011;66443;49.122;8.346;2023-06-10T00:04:48;7.77;;;7.13;;
77384;SDS011;66443;49.122;8.346;2023-06-10T00:07:15;6.83;;;6.23;;
77384;SDS011;66443;49.122;8.346;2023-06-10T00:09:40;7.70;;;6.97;;
77384;SDS011;66443;49.122;8.346;2023-06-10T00:12:06;7.10;;;6.60;;
77384;SDS011;66443;49.122;8.346;2023-06-10T00:14:38;6.70;;;6.30;;
77384;SDS011;66443;49.122;8.346;2023-06-10T00:17:03;6.87;;;6.43;;
77384;SDS011;66443;49.122;8.346;2023-06-10T00:19:29;6.57;;;6.17;;
77384;SDS011;66443;49.122;8.346;2023-06-10T00:21:58;7.80;;;7.13;;
77384;SDS011;66443;49.122;8.346;2023-06-10T00:24:23;7.23;;;6.53;;
77384;SDS011;66443;49.122;8.346;2023-06-10T00:26:49;7.33;;;6.80;;
77384;SDS011;66443;49.122;8.346;2023-06-10T00:29:14;7.80;;;7.30;;
77384;SDS011;66443;49.122;8.346;2023-06-10T00:31:40;7.50;;;7.00;;
77384;SDS011;66443;49.122;8.346;2023-06-10T00:34:05;7.13;;;6.63;;
77384;SDS011;66443;49.122;8.346;2023-06-10T00:36:31;7.40;;;6.70;;
77384;SDS011;66443;49.122;8.346;2023-06-10T00:38:56;7.00;;;6.40;;
77384;SDS011;66443;49.122;8.346;2023-06-10T00:41:22;6.73;;;6.33;;
77384;SDS011;66443;49.122;8.346;2023-06-10T00:43:47;6.70;;;6.10;;
77384;SDS011;66443;49.122;8.346;2023-06-10T00:46:12;7.93;;;7.23;;
77384;SDS011;66443;49.122;8.346;2023-06-10T00:48:38;7.40;;;6.87;;
77384;SDS011;66443;49.122;8.346;2023-06-10T00:51:04;6.83;;;6.33;;
77384;SDS011;66443;49.122;8.346;2023-06-10T00:53:30;7.03;;;6.63;;
77384;SDS011;66443;49.122;8.346;2023-06-10T00:55:55;7.77;;;7.20;;
77384;SDS011;66443;49.122;8.346;2023-06-10T00:58:20;7.70;;;7.03;;
77384;SDS011;66443;49.122;8.346;2023-06-10T01:00:46;7.90;;;7.30;;
77384;SDS011;66443;49.122;8.346;2023-06-10T01:03:11;8.53;;;7.67;;
77384;SDS011;66443;49.122;8.346;2023-06-10T01:05:37;7.83;;;7.33;;
77384;SDS011;66443;49.122;8.346;2023-06-10T01:10:57;8.00;;;7.50;;
77384;SDS011;66443;49.122;8.346;2023-06-10T01:13:23;8.20;;;7.50;;
77384;SDS011;66443;49.122;8.346;2023-06-10T01:15:49;7.00;;;6.50;;
77384;SDS011;66443;49.122;8.346;2023-06-10T01:18:14;7.20;;;6.70;;
77384;SDS011;66443;49.122;8.346;2023-06-10T01:20:40;7.90;;;7.30;;
77384;SDS011;66443;49.122;8.346;2023-06-10T01:23:06;7.90;;;7.40;;
77384;SDS011;66443;49.122;8.346;2023-06-10T01:25:31;8.33;;;7.73;;
77384;SDS011;66443;49.122;8.346;2023-06-10T01:30:32;8.40;;;7.80;;
77384;SDS011;66443;49.122;8.346;2023-06-10T01:33:02;8.37;;;7.77;;
77384;SDS011;66443;49.122;8.346;2023-06-10T01:35:28;8.73;;;8.00;;
77384;SDS011;66443;49.122;8.346;2023-06-10T01:37:55;8.53;;;7.83;;
77384;SDS011;66443;49.122;8.346;2023-06-10T01:40:21;8.07;;;7.43;;
77384;SDS011;66443;49.122;8.346;2023-06-10T01:42:48;9.63;;;7.50;;
77384;SDS011;66443;49.122;8.346;2023-06-10T01:45:13;7.70;;;7.20;;
77384;SDS011;66443;49.122;8.346;2023-06-10T01:47:38;7.83;;;7.33;;
77384;SDS011;66443;49.122;8.346;2023-06-10T01:50:03;7.87;;;7.37;;
77384;SDS011;66443;49.122;8.346;2023-06-10T01:52:29;9.63;;;8.93;;
77384;SDS011;66443;49.122;8.346;2023-06-10T01:54:54;8.97;;;8.23;;
77384;SDS011;66443;49.122;8.346;2023-06-10T01:57:19;9.30;;;8.70;;
77384;SDS011;66443;49.122;8.346;2023-06-10T01:59:45;8.00;;;7.50;;
77384;SDS011;66443;49.122;8.346;2023-06-10T02:02:11;8.90;;;7.83;;
77384;SDS011;66443;49.122;8.346;2023-06-10T02:04:36;7.93;;;7.23;;
77384;SDS011;66443;49.122;8.346;2023-06-10T02:07:01;8.80;;;8.20;;
77384;SDS011;66443;49.122;8.346;2023-06-10T02:09:29;8.37;;;7.63;;
77384;SDS011;66443;49.122;8.346;2023-06-10T02:11:54;7.93;;;7.33;;
77384;SDS011;66443;49.122;8.346;2023-06-10T02:14:19;7.90;;;7.40;;
77384;SDS011;66443;49.122;8.346;2023-06-10T02:16:44;7.53;;;6.93;;
77384;SDS011;66443;49.122;8.346;2023-06-10T02:19:11;8.07;;;7.37;;
77384;SDS011;66443;49.122;8.346;2023-06-10T02:21:37;8.10;;;7.50;;
77384;SDS011;66443;49.122;8.346;2023-06-10T02:24:02;7.73;;;7.23;;
77384;SDS011;66443;49.122;8.346;2023-06-10T02:26:28;8.30;;;7.70;;
77384;SDS011;66443;49.122;8.346;2023-06-10T02:28:53;7.53;;;7.00;;
77384;SDS011;66443;49.122;8.346;2023-06-10T02:31:18;6.77;;;6.27;;
77384;SDS011;66443;49.122;8.346;2023-06-10T02:33:44;7.53;;;6.97;;
77384;SDS011;66443;49.122;8.346;2023-06-10T02:36:10;7.63;;;7.13;;
77384;SDS011;66443;49.122;8.346;2023-06-10T02:38:38;7.00;;;6.50;;
77384;SDS011;66443;49.122;8.346;2023-06-10T02:41:03;8.80;;;7.30;;
77384;SDS011;66443;49.122;8.346;2023-06-10T02:43:28;8.20;;;7.60;;
77384;SDS011;66443;49.122;8.346;2023-06-10T02:45:53;8.07;;;7.23;;
77384;SDS011;66443;49.122;8.346;2023-06-10T02:48:19;13.07;;;7.47;;
77384;SDS011;66443;49.122;8.346;2023-06-10T02:50:44;6.73;;;6.30;;
77384;SDS011;66443;49.122;8.346;2023-06-10T02:53:09;8.10;;;7.03;;
77384;SDS011;66443;49.122;8.346;2023-06-10T02:55:34;6.83;;;6.43;;
77384;SDS011;66443;49.122;8.346;2023-06-10T02:58:00;7.40;;;6.90;;
77384;SDS011;66443;49.122;8.346;2023-06-10T03:00:25;6.93;;;6.53;;
77384;SDS011;66443;49.122;8.346;2023-06-10T03:02:50;7.20;;;6.60;;
77384;SDS011;66443;49.122;8.346;2023-06-10T03:05:15;7.00;;;6.40;;
77384;SDS011;66443;49.122;8.346;2023-06-10T03:07:42;8.60;;;6.30;;
77384;SDS011;66443;49.122;8.346;2023-06-10T03:10:07;6.80;;;6.30;;
77384;SDS011;66443;49.122;8.346;2023-06-10T03:12:32;7.27;;;6.60;;
77384;SDS011;66443;49.122;8.346;2023-06-10T03:14:57;6.80;;;6.30;;
77384;SDS011;66443;49.122;8.346;2023-06-10T03:17:23;7.30;;;6.60;;
77384;SDS011;66443;49.122;8.346;2023-06-10T03:19:48;6.50;;;6.10;;
77384;SDS011;66443;49.122;8.346;2023-06-10T03:22:14;5.97;;;5.57;;
77384;SDS011;66443;49.122;8.346;2023-06-10T03:24:39;6.23;;;5.73;;
77384;SDS011;66443;49.122;8.346;2023-06-10T03:27:11;6.70;;;6.20;;
77384;SDS011;66443;49.122;8.346;2023-06-10T03:29:37;7.13;;;6.63;;
77384;SDS011;66443;49.122;8.346;2023-06-10T03:32:02;6.47;;;5.97;;
77384;SDS011;66443;49.122;8.346;2023-06-10T03:34:28;6.77;;;6.30;;
77384;SDS011;66443;49.122;8.346;2023-06-10T03:36:53;6.67;;;6.23;;
77384;SDS011;66443;49.122;8.346;2023-06-10T03:39:18;6.70;;;6.27;;
77384;SDS011;66443;49.122;8.346;2023-06-10T03:41:43;7.13;;;6.50;;
77384;SDS011;66443;49.122;8.346;2023-06-10T03:44:08;6.80;;;6.30;;
77384;SDS011;66443;49.122;8.346;2023-06-10T03:46:34;6.90;;;6.40;;
77384;SDS011;66443;49.122;8.346;2023-06-10T03:48:59;6.97;;;6.47;;
77384;SDS011;66443;49.122;8.346;2023-06-10T03:51:25;9.23;;;8.33;;
77384;SDS011;66443;49.122;8.346;2023-06-10T03:53:51;8.70;;;8.10;;
77384;SDS011;66443;49.122;8.346;2023-06-10T03:56:16;10.03;;;9.27;;
77384;SDS011;66443;49.122;8.346;2023-06-10T03:58:41;10.03;;;9.33;;
77384;SDS011;66443;49.122;8.346;2023-06-10T04:01:06;9.77;;;8.77;;
77384;SDS011;66443;49.122;8.346;2023-06-10T04:03:32;10.80;;;9.53;;
77384;SDS011;66443;49.122;8.346;2023-06-10T04:05:58;10.03;;;9.30;;
77384;SDS011;66443;49.122;8.346;2023-06-10T04:08:23;10.23;;;9.53;;
77384;SDS011;66443;49.122;8.346;2023-06-10T04:10:48;11.03;;;10.10;;
77384;SDS011;66443;49.122;8.346;2023-06-10T04:13:13;9.83;;;9.13;;
77384;SDS011;66443;49.122;8.346;2023-06-10T04:15:39;10.70;;;9.90;;
77384;SDS011;66443;49.122;8.346;2023-06-10T04:18:06;10.90;;;10.10;;
77384;SDS011;66443;49.122;8.346;2023-06-10T04:20:31;11.50;;;10.70;;
77384;SDS011;66443;49.122;8.346;2023-06-10T04:22:56;10.57;;;9.87;;
77384;SDS011;66443;49.122;8.346;2023-06-10T04:25:22;11.87;;;11.03;;
77384;SDS011;66443;49.122;8.346;2023-06-10T04:27:47;11.17;;;10.20;;
77384;SDS011;66443;49.122;8.346;2023-06-10T04:30:12;11.10;;;10.23;;
77384;SDS011;66443;49.122;8.346;2023-06-10T04:32:38;11.40;;;10.60;;
77384;SDS011;66443;49.122;8.346;2023-06-10T04:35:03;11.70;;;10.80;;
77384;SDS011;66443;49.122;8.346;2023-06-10T04:37:28;11.47;;;10.60;;
77384;SDS011;66443;49.122;8.346;2023-06-10T04:39:54;11.17;;;10.37;;
77384;SDS011;66443;49.122;8.346;2023-06-10T04:42:19;10.97;;;10.17;;
77384;SDS011;66443;49.122;8.346;2023-06-10T04:44:44;11.37;;;10.47;;
77384;SDS011;66443;49.122;8.346;2023-06-10T04:47:09;12.23;;;10.60;;
77384;SDS011;66443;49.122;8.346;2023-06-10T04:49:35;15.90;;;10.93;;
77384;SDS011;66443;49.122;8.346;2023-06-10T04:52:00;12.63;;;11.47;;
77384;SDS011;66443;49.122;8.346;2023-06-10T04:54:25;18.20;;;13.23;;
77384;SDS011;66443;49.122;8.346;2023-06-10T04:56:51;11.80;;;10.73;;
77384;SDS011;66443;49.122;8.346;2023-06-10T04:59:16;11.30;;;10.50;;
77384;SDS011;66443;49.122;8.346;2023-06-10T05:01:41;12.40;;;11.50;;
77384;SDS011;66443;49.122;8.346;2023-06-10T05:04:06;10.87;;;9.93;;
77384;SDS011;66443;49.122;8.346;2023-06-10T05:06:31;10.77;;;10.07;;
77384;SDS011;66443;49.122;8.346;2023-06-10T05:08:56;11.00;;;10.00;;
77384;SDS011;66443;49.122;8.346;2023-06-10T05:11:22;11.60;;;10.53;;
77384;SDS011;66443;49.122;8.346;2023-06-10T05:13:47;10.93;;;9.63;;
77384;SDS011;66443;49.122;8.346;2023-06-10T05:16:12;10.50;;;8.97;;
77384;SDS011;66443;49.122;8.346;2023-06-10T05:18:38;10.73;;;9.83;;
77384;SDS011;66443;49.122;8.346;2023-06-10T05:21:03;11.30;;;9.93;;
77384;SDS011;66443;49.122;8.346;2023-06-10T05:23:28;10.23;;;9.53;;
77384;SDS011;66443;49.122;8.346;2023-06-10T05:25:54;11.10;;;10.10;;
77384;SDS011;66443;49.122;8.346;2023-06-10T05:28:19;11.30;;;10.40;;
77384;SDS011;66443;49.122;8.346;2023-06-10T05:30:44;11.33;;;10.20;;
77384;SDS011;66443;49.122;8.346;2023-06-10T05:33:10;12.23;;;11.30;;
77384;SDS011;66443;49.122;8.346;2023-06-10T05:35:35;10.07;;;9.13;;
77384;SDS011;66443;49.122;8.346;2023-06-10T05:38:00;9.70;;;9.00;;
77384;SDS011;66443;49.122;8.346;2023-06-10T05:40:25;9.30;;;8.43;;
77384;SDS011;66443;49.122;8.346;2023-06-10T05:42:50;9.60;;;8.67;;
77384;SDS011;66443;49.122;8.346;2023-06-10T05:45:15;10.43;;;9.63;;
77384;SDS011;66443;49.122;8.346;2023-06-10T05:47:41;9.27;;;8.67;;
77384;SDS011;66443;49.122;8.346;2023-06-10T05:50:06;8.27;;;7.77;;
77384;SDS011;66443;49.122;8.346;2023-06-10T05:52:35;8.90;;;8.30;;
77384;SDS011;66443;49.122;8.346;2023-06-10T05:55:00;8.57;;;7.97;;
77384;SDS011;66443;49.122;8.346;2023-06-10T05:57:26;7.07;;;6.67;;
77384;SDS011;66443;49.122;8.346;2023-06-10T05:59:51;7.80;;;7.20;;
77384;SDS011;66443;49.122;8.346;2023-06-10T06:02:16;6.97;;;6.57;;
77384;SDS011;66443;49.122;8.346;2023-06-10T06:04:41;9.37;;;7.40;;
77384;SDS011;66443;49.122;8.346;2023-06-10T06:07:06;8.03;;;7.23;;
77384;SDS011;66443;49.122;8.346;2023-06-10T06:09:32;7.53;;;7.00;;
77384;SDS011;66443;49.122;8.346;2023-06-10T06:11:57;7.57;;;6.97;;
77384;SDS011;66443;49.122;8.346;2023-06-10T06:14:22;6.77;;;6.37;;
77384;SDS011;66443;49.122;8.346;2023-06-10T06:16:47;8.60;;;6.90;;
77384;SDS011;66443;49.122;8.346;2023-06-10T06:19:13;7.17;;;6.67;;
77384;SDS011;66443;49.122;8.346;2023-06-10T06:21:38;6.53;;;6.03;;
77384;SDS011;66443;49.122;8.346;2023-06-10T06:24:03;6.50;;;6.10;;
77384;SDS011;66443;49.122;8.346;2023-06-10T06:26:28;7.47;;;6.93;;
77384;SDS011;66443;49.122;8.346;2023-06-10T06:28:53;6.60;;;6.20;;
77384;SDS011;66443;49.122;8.346;2023-06-10T06:31:19;8.20;;;6.57;;
77384;SDS011;66443;49.122;8.346;2023-06-10T06:33:44;6.43;;;6.03;;
77384;SDS011;66443;49.122;8.346;2023-06-10T06:36:09;6.63;;;6.13;;
77384;SDS011;66443;49.122;8.346;2023-06-10T06:38:34;6.05;;;5.65;;
77384;SDS011;66443;49.122;8.346;2023-06-10T06:41:00;7.27;;;6.27;;
77384;SDS011;66443;49.122;8.346;2023-06-10T06:43:28;7.23;;;5.70;;
77384;SDS011;66443;49.122;8.346;2023-06-10T06:45:53;5.83;;;5.43;;
77384;SDS011;66443;49.122;8.346;2023-06-10T06:48:18;6.50;;;6.00;;
77384;SDS011;66443;49.122;8.346;2023-06-10T06:50:43;6.90;;;6.30;;
77384;SDS011;66443;49.122;8.346;2023-06-10T06:53:08;6.38;;;5.82;;
77384;SDS011;66443;49.122;8.346;2023-06-10T06:55:33;6.63;;;6.20;;
77384;SDS011;66443;49.122;8.346;2023-06-10T06:57:59;6.20;;;5.73;;
77384;SDS011;66443;49.122;8.346;2023-06-10T07:00:27;5.72;;;5.40;;
77384;SDS011;66443;49.122;8.346;2023-06-10T07:02:52;5.68;;;5.35;;
77384;SDS011;66443;49.122;8.346;2023-06-10T07:05:18;5.75;;;5.35;;
77384;SDS011;66443;49.122;8.346;2023-06-10T07:07:43;6.28;;;5.70;;
77384;SDS011;66443;49.122;8.346;2023-06-10T07:10:08;6.70;;;6.10;;
77384;SDS011;66443;49.122;8.346;2023-06-10T07:12:33;6.05;;;5.65;;
77384;SDS011;66443;49.122;8.346;2023-06-10T07:14:58;5.57;;;5.20;;
77384;SDS011;66443;49.122;8.346;2023-06-10T07:17:24;5.78;;;5.47;;
77384;SDS011;66443;49.122;8.346;2023-06-10T07:19:49;5.90;;;5.50;;
77384;SDS011;66443;49.122;8.346;2023-06-10T07:22:14;5.95;;;5.40;;
77384;SDS011;66443;49.122;8.346;2023-06-10T07:24:39;6.20;;;5.68;;
77384;SDS011;66443;49.122;8.346;2023-06-10T07:27:05;5.50;;;5.10;;
77384;SDS011;66443;49.122;8.346;2023-06-10T07:29:30;5.78;;;5.38;;
77384;SDS011;66443;49.122;8.346;2023-06-10T07:31:56;5.30;;;5.00;;
77384;SDS011;66443;49.122;8.346;2023-06-10T07:34:21;5.47;;;5.17;;
77384;SDS011;66443;49.122;8.346;2023-06-10T07:36:46;5.57;;;5.07;;
77384;SDS011;66443;49.122;8.346;2023-06-10T07:39:11;5.37;;;4.97;;
77384;SDS011;66443;49.122;8.346;2023-06-10T07:41:36;5.40;;;5.10;;
77384;SDS011;66443;49.122;8.346;2023-06-10T07:44:02;5.68;;;5.28;;
77384;SDS011;66443;49.122;8.346;2023-06-10T07:46:27;5.65;;;5.15;;
77384;SDS011;66443;49.122;8.346;2023-06-10T07:48:53;5.10;;;4.80;;
77384;SDS011;66443;49.122;8.346;2023-06-10T07:51:19;5.07;;;4.70;;
77384;SDS011;66443;49.122;8.346;2023-06-10T07:53:44;5.40;;;5.10;;
77384;SDS011;66443;49.122;8.346;2023-06-10T07:56:09;4.93;;;4.63;;
77384;SDS011;66443;49.122;8.346;2023-06-10T07:58:34;5.38;;;4.97;;
77384;SDS011;66443;49.122;8.346;2023-06-10T08:00:59;5.70;;;4.65;;
77384;SDS011;66443;49.122;8.346;2023-06-10T08:03:25;5.30;;;4.80;;
77384;SDS011;66443;49.122;8.346;2023-06-10T08:05:50;5.57;;;5.18;;
77384;SDS011;66443;49.122;8.346;2023-06-10T08:08:15;5.10;;;4.80;;
77384;SDS011;66443;49.122;8.346;2023-06-10T08:10:40;5.43;;;5.03;;
77384;SDS011;66443;49.122;8.346;2023-06-10T08:13:06;5.10;;;4.80;;
77384;SDS011;66443;49.122;8.346;2023-06-10T08:15:31;5.97;;;5.57;;
77384;SDS011;66443;49.122;8.346;2023-06-10T08:17:56;6.38;;;5.07;;
77384;SDS011;66443;49.122;8.346;2023-06-10T08:20:21;5.05;;;4.72;;
77384;SDS011;66443;49.122;8.346;2023-06-10T08:22:46;5.13;;;4.63;;
77384;SDS011;66443;49.122;8.346;2023-06-10T08:25:12;4.95;;;4.65;;
77384;SDS011;66443;49.122;8.346;2023-06-10T08:27:37;4.53;;;4.22;;
77384;SDS011;66443;49.122;8.346;2023-06-10T08:30:02;5.25;;;4.90;;
77384;SDS011;66443;49.122;8.346;2023-06-10T08:32:27;4.90;;;4.50;;
77384;SDS011;66443;49.122;8.346;2023-06-10T08:34:53;5.05;;;4.75;;
77384;SDS011;66443;49.122;8.346;2023-06-10T08:37:18;4.82;;;4.43;;
77384;SDS011;66443;49.122;8.346;2023-06-10T08:39:43;4.90;;;4.60;;
77384;SDS011;66443;49.122;8.346;2023-06-10T08:44:36;4.80;;;4.45;;
77384;SDS011;66443;49.122;8.346;2023-06-10T08:47:15;5.53;;;5.13;;
77384;SDS011;66443;49.122;8.346;2023-06-10T08:49:41;5.68;;;5.28;;
77384;SDS011;66443;49.122;8.346;2023-06-10T08:52:08;4.55;;;4.15;;
77384;SDS011;66443;49.122;8.346;2023-06-10T08:54:35;5.38;;;5.07;;
77384;SDS011;66443;49.122;8.346;2023-06-10T08:57:03;5.30;;;4.97;;
77384;SDS011;66443;49.122;8.346;2023-06-10T08:59:29;4.65;;;4.30;;
77384;SDS011;66443;49.122;8.346;2023-06-10T09:01:54;4.32;;;4.10;;
77384;SDS011;66443;49.122;8.346;2023-06-10T09:04:19;4.32;;;4.13;;
77384;SDS011;66443;49.122;8.346;2023-06-10T09:06:45;5.22;;;4.90;;
77384;SDS011;66443;49.122;8.346;2023-06-10T09:09:11;4.60;;;4.20;;
77384;SDS011;66443;49.122;8.346;2023-06-10T09:11:37;4.53;;;4.28;;
77384;SDS011;66443;49.122;8.346;2023-06-10T09:14:03;5.00;;;4.28;;
77384;SDS011;66443;49.122;8.346;2023-06-10T09:16:28;4.82;;;4.43;;
77384;SDS011;66443;49.122;8.346;2023-06-10T09:18:53;5.22;;;4.93;;
77384;SDS011;66443;49.122;8.346;2023-06-10T09:21:23;4.53;;;4.22;;
77384;SDS011;66443;49.122;8.346;2023-06-10T09:23:49;4.95;;;4.65;;
77384;SDS011;66443;49.122;8.346;2023-06-10T09:26:14;4.60;;;4.30;;
77384;SDS011;66443;49.122;8.346;2023-06-10T09:28:41;4.57;;;4.28;;
77384;SDS011;66443;49.122;8.346;2023-06-10T09:31:08;5.00;;;4.60;;
77384;SDS011;66443;49.122;8.346;2023-06-10T09:33:36;5.13;;;4.45;;
77384;SDS011;66443;49.122;8.346;2023-06-10T09:36:02;5.00;;;4.40;;
77384;SDS011;66443;49.122;8.346;2023-06-10T09:38:31;4.93;;;4.53;;
77384;SDS011;66443;49.122;8.346;2023-06-10T09:40:57;4.88;;;4.57;;
77384;SDS011;66443;49.122;8.346;2023-06-10T09:43:22;4.85;;;4.53;;
77384;SDS011;66443;49.122;8.346;2023-06-10T09:45:48;5.03;;;4.72;;
77384;SDS011;66443;49.122;8.346;2023-06-10T09:48:13;4.85;;;4.55;;
77384;SDS011;66443;49.122;8.346;2023-06-10T09:50:42;5.32;;;4.93;;
77384;SDS011;66443;49.122;8.346;2023-06-10T09:53:08;5.13;;;4.72;;
77384;SDS011;66443;49.122;8.346;2023-06-10T09:55:33;5.07;;;4.57;;
77384;SDS011;66443;49.122;8.346;2023-06-10T09:57:59;4.90;;;4.50;;
77384;SDS011;66443;49.122;8.346;2023-06-10T10:00:24;4.45;;;4.25;;
77384;SDS011;66443;49.122;8.346;2023-06-10T10:02:51;4.70;;;4.40;;
77384;SDS011;66443;49.122;8.346;2023-06-10T10:05:17;5.20;;;4.70;;
77384;SDS011;66443;49.122;8.346;2023-06-10T10:07:43;4.40;;;4.00;;
77384;SDS011;66443;49.122;8.346;2023-06-10T10:10:08;4.85;;;4.40;;
77384;SDS011;66443;49.122;8.346;2023-06-10T10:12:35;4.55;;;4.30;;
77384;SDS011;66443;49.122;8.346;2023-06-10T10:15:00;4.65;;;4.35;;
77384;SDS011;66443;49.122;8.346;2023-06-10T10:17:27;4.63;;;4.32;;
77384;SDS011;66443;49.122;8.346;2023-06-10T10:19:57;4.68;;;4.28;;
77384;SDS011;66443;49.122;8.346;2023-06-10T10:22:25;4.68;;;4.38;;
77384;SDS011;66443;49.122;8.346;2023-06-10T10:24:52;4.53;;;4.22;;
77384;SDS011;66443;49.122;8.346;2023-06-10T10:27:20;4.70;;;4.40;;
77384;SDS011;66443;49.122;8.346;2023-06-10T10:29:47;4.45;;;4.25;;
77384;SDS011;66443;49.122;8.346;2023-06-10T10:32:12;4.75;;;4.45;;
77384;SDS011;66443;49.122;8.346;2023-06-10T10:37:06;7.10;;;4.32;;
77384;SDS011;66443;49.122;8.346;2023-06-10T10:39:33;4.53;;;4.25;;
77384;SDS011;66443;49.122;8.346;2023-06-10T10:41:58;4.68;;;4.22;;
77384;SDS011;66443;49.122;8.346;2023-06-10T10:44:24;4.35;;;4.13;;
77384;SDS011;66443;49.122;8.346;2023-06-10T10:46:49;4.38;;;4.07;;
77384;SDS011;66443;49.122;8.346;2023-06-10T10:49:15;4.80;;;4.50;;
77384;SDS011;66443;49.122;8.346;2023-06-10T10:51:57;4.68;;;4.28;;
77384;SDS011;66443;49.122;8.346;2023-06-10T10:54:29;5.25;;;4.82;;
77384;SDS011;66443;49.122;8.346;2023-06-10T10:57:09;4.80;;;4.50;;
77384;SDS011;66443;49.122;8.346;2023-06-10T10:59:54;4.45;;;4.15;;
77384;SDS011;66443;49.122;8.346;2023-06-10T11:02:34;4.45;;;4.18;;
77384;SDS011;66443;49.122;8.346;2023-06-10T11:05:00;4.82;;;4.53;;
77384;SDS011;66443;49.122;8.346;2023-06-10T11:07:25;4.50;;;4.20;;
77384;SDS011;66443;49.122;8.346;2023-06-10T11:10:01;3.70;;;3.50;;
77384;SDS011;66443;49.122;8.346;2023-06-10T11:15:13;4.75;;;4.45;;
77384;SDS011;66443;49.122;8.346;2023-06-10T11:28:37;4.57;;;4.30;;
77384;SDS011;66443;49.122;8.346;2023-06-10T11:31:02;5.03;;;4.63;;
77384;SDS011;66443;49.122;8.346;2023-06-10T11:33:27;5.13;;;4.80;;
77384;SDS011;66443;49.122;8.346;2023-06-10T11:35:52;4.40;;;4.00;;
77384;SDS011;66443;49.122;8.346;2023-06-10T11:38:18;4.63;;;4.33;;
77384;SDS011;66443;49.122;8.346;2023-06-10T11:40:49;5.40;;;5.10;;
77384;SDS011;66443;49.122;8.346;2023-06-10T11:43:16;4.53;;;4.13;;
77384;SDS011;66443;49.122;8.346;2023-06-10T11:45:41;4.30;;;4.00;;
77384;SDS011;66443;49.122;8.346;2023-06-10T11:48:07;4.97;;;4.68;;
77384;SDS011;66443;49.122;8.346;2023-06-10T11:50:32;4.60;;;4.20;;
77384;SDS011;66443;49.122;8.346;2023-06-10T11:52:57;4.43;;;3.92;;
77384;SDS011;66443;49.122;8.346;2023-06-10T11:55:24;3.78;;;3.53;;
77384;SDS011;66443;49.122;8.346;2023-06-10T11:57:49;4.15;;;3.95;;
77384;SDS011;66443;49.122;8.346;2023-06-10T12:00:22;4.18;;;3.97;;
77384;SDS011;66443;49.122;8.346;2023-06-10T12:02:54;4.97;;;4.37;;
77384;SDS011;66443;49.122;8.346;2023-06-10T12:05:19;4.05;;;3.75;;
77384;SDS011;66443;49.122;8.346;2023-06-10T12:07:44;4.20;;;3.90;;
77384;SDS011;66443;49.122;8.346;2023-06-10T12:10:09;4.25;;;4.05;;
77384;SDS011;66443;49.122;8.346;2023-06-10T12:12:35;3.70;;;3.50;;
77384;SDS011;66443;49.122;8.346;2023-06-10T12:15:01;4.10;;;3.90;;
77384;SDS011;66443;49.122;8.346;2023-06-10T12:19:58;4.38;;;4.07;;
77384;SDS011;66443;49.122;8.346;2023-06-10T12:22:23;4.28;;;3.97;;
77384;SDS011;66443;49.122;8.346;2023-06-10T12:24:59;4.32;;;4.13;;
77384;SDS011;66443;49.122;8.346;2023-06-10T12:27:26;4.35;;;4.05;;
77384;SDS011;66443;49.122;8.346;2023-06-10T12:29:53;3.83;;;3.53;;
77384;SDS011;66443;49.122;8.346;2023-06-10T12:32:18;4.40;;;4.10;;
77384;SDS011;66443;49.122;8.346;2023-06-10T12:34:45;4.07;;;3.78;;
77384;SDS011;66443;49.122;8.346;2023-06-10T12:37:10;4.43;;;4.03;;
77384;SDS011;66443;49.122;8.346;2023-06-10T12:39:38;4.95;;;3.60;;
77384;SDS011;66443;49.122;8.346;2023-06-10T12:42:04;3.60;;;3.40;;
77384;SDS011;66443;49.122;8.346;2023-06-10T12:44:33;3.95;;;3.60;;
77384;SDS011;66443;49.122;8.346;2023-06-10T12:46:59;3.58;;;3.28;;
77384;SDS011;66443;49.122;8.346;2023-06-10T12:49:24;3.80;;;3.50;;
77384;SDS011;66443;49.122;8.346;2023-06-10T12:51:51;3.50;;;3.22;;
77384;SDS011;66443;49.122;8.346;2023-06-10T12:54:16;3.80;;;3.60;;
77384;SDS011;66443;49.122;8.346;2023-06-10T12:56:41;3.43;;;3.23;;
77384;SDS011;66443;49.122;8.346;2023-06-10T12:59:07;3.70;;;3.50;;
77384;SDS011;66443;49.122;8.346;2023-06-10T13:01:32;4.30;;;3.83;;
77384;SDS011;66443;49.122;8.346;2023-06-10T13:03:58;3.50;;;3.30;;
77384;SDS011;66443;49.122;8.346;2023-06-10T13:06:23;2.90;;;2.80;;
77384;SDS011;66443;49.122;8.346;2023-06-10T13:08:48;3.10;;;3.00;;
77384;SDS011;66443;49.122;8.346;2023-06-10T13:11:13;3.90;;;3.70;;
77384;SDS011;66443;49.122;8.346;2023-06-10T13:13:39;3.00;;;2.80;;
77384;SDS011;66443;49.122;8.346;2023-06-10T13:16:04;3.07;;;2.87;;
77384;SDS011;66443;49.122;8.346;2023-06-10T13:18:29;3.38;;;2.92;;
77384;SDS011;66443;49.122;8.346;2023-06-10T13:20:54;2.70;;;2.60;;
77384;SDS011;66443;49.122;8.346;2023-06-10T13:23:19;2.53;;;2.38;;
77384;SDS011;66443;49.122;8.346;2023-06-10T13:25:45;3.20;;;3.00;;
77384;SDS011;66443;49.122;8.346;2023-06-10T13:28:10;2.70;;;2.60;;
77384;SDS011;66443;49.122;8.346;2023-06-10T13:30:36;3.00;;;2.83;;
77384;SDS011;66443;49.122;8.346;2023-06-10T13:33:01;3.20;;;3.00;;
77384;SDS011;66443;49.122;8.346;2023-06-10T13:35:27;2.50;;;2.40;;
77384;SDS011;66443;49.122;8.346;2023-06-10T13:37:52;2.63;;;2.53;;
77384;SDS011;66443;49.122;8.346;2023-06-10T13:40:17;2.60;;;2.50;;
77384;SDS011;66443;49.122;8.346;2023-06-10T13:42:44;2.38;;;2.28;;
77384;SDS011;66443;49.122;8.346;2023-06-10T13:45:10;2.65;;;2.55;;
77384;SDS011;66443;49.122;8.346;2023-06-10T13:47:35;2.80;;;2.70;;
77384;SDS011;66443;49.122;8.346;2023-06-10T13:50:00;3.05;;;2.85;;
77384;SDS011;66443;49.122;8.346;2023-06-10T13:52:25;2.97;;;2.78;;
77384;SDS011;66443;49.122;8.346;2023-06-10T13:54:50;2.57;;;2.47;;
77384;SDS011;66443;49.122;8.346;2023-06-10T13:57:16;2.63;;;2.43;;
77384;SDS011;66443;49.122;8.346;2023-06-10T13:59:41;2.80;;;2.60;;
77384;SDS011;66443;49.122;8.346;2023-06-10T14:02:06;3.13;;;2.77;;
77384;SDS011;66443;49.122;8.346;2023-06-10T14:04:31;3.00;;;2.73;;
77384;SDS011;66443;49.122;8.346;2023-06-10T14:06:57;2.22;;;2.10;;
77384;SDS011;66443;49.122;8.346;2023-06-10T14:09:22;2.43;;;2.33;;
77384;SDS011;66443;49.122;8.346;2023-06-10T14:11:48;2.60;;;2.50;;
77384;SDS011;66443;49.122;8.346;2023-06-10T14:14:13;2.80;;;2.60;;
77384;SDS011;66443;49.122;8.346;2023-06-10T14:16:39;2.30;;;2.20;;
77384;SDS011;66443;49.122;8.346;2023-06-10T14:19:05;2.88;;;2.67;;
77384;SDS011;66443;49.122;8.346;2023-06-10T14:21:30;2.40;;;2.30;;
77384;SDS011;66443;49.122;8.346;2023-06-10T14:23:55;2.53;;;2.43;;
77384;SDS011;66443;49.122;8.346;2023-06-10T14:26:20;3.13;;;3.00;;
77384;SDS011;66443;49.122;8.346;2023-06-10T14:28:47;2.60;;;2.40;;
77384;SDS011;66443;49.122;8.346;2023-06-10T14:31:12;3.80;;;2.90;;
77384;SDS011;66443;49.122;8.346;2023-06-10T14:33:37;2.73;;;2.60;;
77384;SDS011;66443;49.122;8.346;2023-06-10T14:36:02;2.80;;;2.60;;
77384;SDS011;66443;49.122;8.346;2023-06-10T14:38:28;2.60;;;2.50;;
77384;SDS011;66443;49.122;8.346;2023-06-10T14:40:53;2.38;;;2.28;;
77384;SDS011;66443;49.122;8.346;2023-06-10T14:43:18;2.57;;;2.40;;
77384;SDS011;66443;49.122;8.346;2023-06-10T14:45:43;2.20;;;2.10;;
77384;SDS011;66443;49.122;8.346;2023-06-10T14:48:09;2.20;;;2.10;;
77384;SDS011;66443;49.122;8.346;2023-06-10T14:50:35;2.90;;;2.70;;
77384;SDS011;66443;49.122;8.346;2023-06-10T14:53:00;2.60;;;2.47;;
77384;SDS011;66443;49.122;8.346;2023-06-10T14:55:28;2.30;;;2.20;;
77384;SDS011;66443;49.122;8.346;2023-06-10T14:57:53;2.23;;;2.13;;
77384;SDS011;66443;49.122;8.346;2023-06-10T15:00:18;2.37;;;2.27;;
77384;SDS011;66443;49.122;8.346;2023-06-10T15:02:50;2.08;;;1.98;;
77384;SDS011;66443;49.122;8.346;2023-06-10T15:05:16;3.42;;;2.90;;